This is the latest recevied weather packets stored in our database for station/object YF9UAG-15. If no packets are shown the sender has not sent any weather packets the latest 10 day(s).
| Time | Temp. | Humidity | Pressure | Rain* | Wind** | Luminosity | Snow |
|---|---|---|---|---|---|---|---|
| 1778204162 | 32.22° C | 91% | 1006.1 hPa | - | - | - | - |
| 1778204041 | 32.78° C | 91% | 1006.1 hPa | - | - | - | - |
| 1778203920 | 31.67° C | 93% | 1006.2 hPa | - | - | - | - |
| 1778203799 | 31.67° C | 94% | 1006.3 hPa | - | - | - | - |
| 1778203678 | 32.22° C | 93% | 1006.4 hPa | - | - | - | - |
| 1778203557 | 32.22° C | 91% | 1006.4 hPa | - | - | - | - |
| 1778203437 | 32.78° C | 92% | 1006.5 hPa | - | - | - | - |
| 1778203316 | 32.22° C | 92% | 1006.6 hPa | - | - | - | - |
| 1778203195 | 32.78° C | 89% | 1006.6 hPa | - | - | - | - |
| 1778203074 | 32.22° C | 91% | 1006.5 hPa | - | - | - | - |
| 1778202953 | 32.22° C | 92% | 1006.7 hPa | - | - | - | - |
| 1778202832 | 31.67° C | 95% | 1006.7 hPa | - | - | - | - |
| 1778202711 | 31.67° C | 95% | 1006.7 hPa | - | - | - | - |
| 1778202590 | 31.67° C | 96% | 1006.8 hPa | - | - | - | - |
| 1778202469 | 31.11° C | 97% | 1006.9 hPa | - | - | - | - |
| 1778202348 | 31.67° C | 96% | 1006.9 hPa | - | - | - | - |
| 1778202227 | 31.11° C | 97% | 1007 hPa | - | - | - | - |
| 1778202106 | 31.11° C | 97% | 1006.9 hPa | - | - | - | - |
| 1778201985 | 31.11° C | 98% | 1006.9 hPa | - | - | - | - |
| 1778201864 | 31.11° C | 99% | 1007 hPa | - | - | - | - |
| 1778201743 | 31.11° C | 100% | 1007 hPa | - | - | - | - |
| 1778201623 | 31.11° C | 100% | 1007.1 hPa | - | - | - | - |
| 1778201502 | 30.56° C | 100% | 1007.1 hPa | - | - | - | - |
| 1778201381 | 30.56° C | 100% | 1007.1 hPa | - | - | - | - |
| 1778201260 | 30.56° C | 100% | 1007.1 hPa | - | - | - | - |
* Rain since midnight (hover to see other rain measurements)
** Current wind speed in m/s (hover to see current wind gust speed)